createdAt,value
2022-08-03T00:00:29.041Z,16.36
2022-08-03T00:05:48.367Z,16.48
2022-08-03T00:10:55.866Z,16.62
2022-08-03T00:16:03.412Z,16.64
2022-08-03T00:21:10.889Z,16.38
2022-08-03T00:26:18.460Z,16.12
2022-08-03T00:31:25.902Z,16.12
2022-08-03T00:36:32.219Z,16.26
2022-08-03T00:41:41.207Z,16.35
2022-08-03T00:46:48.321Z,16.18
2022-08-03T00:51:55.762Z,15.9
2022-08-03T00:57:02.373Z,15.72
2022-08-03T01:02:10.292Z,15.69
2022-08-03T01:07:17.363Z,15.59
2022-08-03T01:12:25.428Z,15.44
2022-08-03T01:17:32.447Z,15.3
2022-08-03T01:22:40.216Z,15.33
2022-08-03T01:27:47.984Z,15.44
2022-08-03T01:32:54.897Z,15.42
2022-08-03T01:38:02.461Z,15.22
2022-08-03T01:43:11.354Z,15.13
2022-08-03T01:48:19.659Z,15.05
2022-08-03T01:53:28.274Z,14.98
2022-08-03T01:58:35.134Z,14.94
2022-08-03T02:03:42.906Z,14.9
2022-08-03T02:08:50.135Z,14.85
2022-08-03T02:13:56.727Z,14.84
2022-08-03T02:19:04.532Z,14.82
2022-08-03T02:24:11.730Z,14.79
2022-08-03T02:29:19.595Z,14.68
2022-08-03T02:34:27.042Z,14.62
2022-08-03T02:39:34.823Z,14.52
2022-08-03T02:44:41.843Z,14.51
2022-08-03T02:49:48.356Z,14.53
2022-08-03T02:54:56.212Z,14.5
2022-08-03T03:00:04.052Z,14.46
2022-08-03T03:05:11.274Z,14.54
2022-08-03T03:10:18.403Z,14.67
2022-08-03T03:15:31.407Z,14.66
2022-08-03T03:20:38.359Z,14.53
2022-08-03T03:25:45.908Z,14.44
2022-08-03T03:30:53.713Z,14.38
2022-08-03T03:36:01.408Z,14.42
2022-08-03T03:41:08.061Z,14.4
2022-08-03T03:46:16.009Z,14.36
2022-08-03T03:51:23.941Z,14.46
2022-08-03T03:56:30.967Z,14.48
2022-08-03T04:01:38.798Z,14.52
2022-08-03T04:06:51.091Z,14.96
2022-08-03T04:11:59.193Z,15.79
2022-08-03T04:17:07.279Z,16.64
2022-08-03T04:22:15.211Z,17.51
2022-08-03T04:27:23.910Z,18.47
2022-08-03T04:32:31.925Z,19.41
2022-08-03T04:37:40.142Z,19.83
2022-08-03T04:42:47.249Z,20.32
2022-08-03T04:47:54.877Z,20.7
2022-08-03T04:53:01.646Z,21.22
2022-08-03T04:58:11.275Z,21.76
2022-08-03T05:03:18.607Z,22.26
2022-08-03T05:08:25.381Z,22.43
2022-08-03T05:13:33.013Z,22.38
2022-08-03T05:18:39.600Z,22.21
2022-08-03T05:23:46.771Z,22.44
2022-08-03T05:28:55.254Z,22.58
2022-08-03T05:35:34.279Z,22.57
2022-08-03T05:40:40.661Z,22.93
2022-08-03T05:45:49.084Z,23.67
2022-08-03T05:50:56.247Z,23.8
2022-08-03T05:56:03.459Z,24.1
2022-08-03T06:01:11.574Z,24.39
2022-08-03T06:06:19.095Z,24.36
2022-08-03T06:11:26.305Z,24.3
2022-08-03T06:16:34.139Z,24.35
2022-08-03T06:21:41.366Z,24.49
2022-08-03T06:26:49.645Z,24.94
2022-08-03T06:31:57.304Z,25.25
2022-08-03T06:37:05.336Z,25.29
2022-08-03T06:42:13.410Z,25.2
2022-08-03T06:47:21.732Z,25.3
2022-08-03T06:52:28.998Z,25.5
2022-08-03T06:57:36.791Z,25.52
2022-08-03T07:02:44.955Z,25.56
2022-08-03T07:07:52.734Z,25.84
2022-08-03T07:13:00.873Z,26.5
2022-08-03T07:18:08.853Z,26.9
2022-08-03T07:23:16.721Z,27.26
2022-08-03T07:28:25.715Z,28.34
2022-08-03T07:34:13.389Z,30.62
2022-08-03T07:39:19.915Z,33.2
2022-08-03T07:44:28.351Z,35.74
2022-08-03T07:49:35.583Z,36.42
2022-08-03T07:54:44.564Z,36.44
2022-08-03T07:59:54.253Z,38.11
2022-08-03T08:05:02.879Z,39.9
2022-08-03T08:10:11.282Z,40.62
2022-08-03T08:15:18.614Z,41.5
2022-08-03T08:20:25.873Z,42.28
2022-08-03T08:25:34.073Z,42.9
2022-08-03T08:30:41.955Z,42.36
2022-08-03T08:35:51.118Z,42.66
2022-08-03T08:40:58.438Z,42.54
2022-08-03T08:46:05.930Z,42.7
2022-08-03T08:51:13.847Z,42.6
2022-08-03T08:56:22.160Z,42.85
2022-08-03T09:01:29.837Z,43.2
2022-08-03T09:06:38.308Z,43.5
2022-08-03T09:11:45.707Z,43.94
2022-08-03T09:16:52.051Z,43.21
2022-08-03T09:21:59.447Z,43.78
2022-08-03T09:27:06.969Z,44.6
2022-08-03T09:32:23.125Z,45.26
2022-08-03T09:37:31.071Z,44.85
2022-08-03T09:42:37.731Z,44.35
2022-08-03T09:47:44.842Z,44.6
2022-08-03T09:52:56.333Z,44.08
2022-08-03T09:58:03.768Z,45.39
2022-08-03T10:03:11.609Z,46.15
2022-08-03T10:08:19.839Z,45.89
2022-08-03T10:13:27.502Z,45.8
2022-08-03T10:18:34.664Z,46.18
2022-08-03T10:23:43.051Z,46.4
2022-08-03T10:28:51.005Z,46.92
2022-08-03T10:33:58.620Z,45.79
2022-08-03T10:39:05.919Z,46.3
2022-08-03T10:44:13.018Z,45.74
2022-08-03T10:49:20.244Z,45.17
2022-08-03T10:54:28.013Z,44.7
2022-08-03T10:59:35.276Z,45.04
2022-08-03T11:04:43.609Z,45.26
2022-08-03T11:09:51.578Z,44.99
2022-08-03T11:14:58.970Z,45.4
2022-08-03T11:20:07.110Z,46.35
2022-08-03T11:25:13.820Z,46.08
2022-08-03T11:30:21.658Z,45.86
2022-08-03T11:35:28.864Z,45.98
2022-08-03T11:40:36.031Z,46.62
2022-08-03T11:45:42.612Z,46.58
2022-08-03T11:50:51.412Z,46.56
2022-08-03T11:55:59.104Z,45.5
2022-08-03T12:01:06.552Z,44.12
2022-08-03T12:06:13.923Z,43.14
2022-08-03T12:11:20.538Z,42.0
2022-08-03T12:16:27.960Z,40.52
2022-08-03T12:21:36.720Z,39.06
2022-08-03T12:27:34.674Z,37.77
2022-08-03T12:32:41.206Z,36.65
2022-08-03T12:37:49.656Z,35.66
2022-08-03T12:42:56.858Z,35.19
2022-08-03T12:48:05.046Z,35.14
2022-08-03T12:53:12.540Z,34.7
2022-08-03T12:58:21.058Z,35.29
2022-08-03T13:03:29.698Z,35.56
2022-08-03T13:08:38.165Z,36.15
2022-08-03T13:13:45.816Z,35.98
2022-08-03T13:18:54.499Z,36.29
2022-08-03T13:24:02.376Z,36.52
2022-08-03T13:29:08.692Z,35.94
2022-08-03T13:34:15.888Z,35.68
2022-08-03T13:39:24.334Z,35.78
2022-08-03T13:44:31.941Z,35.92
2022-08-03T13:49:39.447Z,35.6
2022-08-03T13:54:46.559Z,35.53
2022-08-03T13:59:53.852Z,34.98
2022-08-03T14:05:02.082Z,34.59
2022-08-03T14:10:10.344Z,34.74
2022-08-03T14:15:18.307Z,34.75
2022-08-03T14:20:26.985Z,34.83
2022-08-03T14:25:34.694Z,34.75
2022-08-03T14:30:41.498Z,34.72
2022-08-03T14:35:48.967Z,34.7
2022-08-03T14:40:56.965Z,35.14
2022-08-03T14:46:04.883Z,34.96
2022-08-03T14:51:13.090Z,35.61
2022-08-03T14:56:21.214Z,36.54
2022-08-03T15:01:44.422Z,36.82
2022-08-03T15:06:52.363Z,37.77
2022-08-03T15:12:00.206Z,38.9
2022-08-03T15:17:14.705Z,39.02
2022-08-03T15:22:23.447Z,39.35
2022-08-03T15:27:30.782Z,39.26
2022-08-03T15:32:37.415Z,39.09
2022-08-03T15:38:01.141Z,39.34
2022-08-03T15:43:08.845Z,39.04
2022-08-03T15:48:16.887Z,38.4
2022-08-03T15:53:24.380Z,38.4
2022-08-03T15:58:30.654Z,37.48
2022-08-03T16:03:38.007Z,37.7
2022-08-03T16:08:45.060Z,36.62
2022-08-03T16:13:53.213Z,36.24
2022-08-03T16:19:00.088Z,35.32
2022-08-03T16:24:08.177Z,34.59
2022-08-03T16:29:16.245Z,32.78
2022-08-03T16:34:22.933Z,31.44
2022-08-03T16:39:31.172Z,30.62
2022-08-03T16:44:39.855Z,30.1
2022-08-03T16:49:47.470Z,29.67
2022-08-03T16:54:53.662Z,29.3
2022-08-03T17:00:00.215Z,28.94
2022-08-03T17:05:07.413Z,28.71
2022-08-03T17:10:14.872Z,28.4
2022-08-03T17:15:23.435Z,28.16
2022-08-03T17:20:30.962Z,27.82
2022-08-03T17:25:37.492Z,27.34
2022-08-03T17:30:45.965Z,26.86
2022-08-03T17:35:53.822Z,26.4
2022-08-03T17:41:01.719Z,26.06
2022-08-03T17:46:09.089Z,25.72
2022-08-03T17:51:16.795Z,25.5
2022-08-03T17:56:23.896Z,25.2
2022-08-03T18:01:31.876Z,24.94
2022-08-03T18:06:39.446Z,24.73
2022-08-03T18:11:46.857Z,24.44
2022-08-03T18:16:54.220Z,24.2
2022-08-03T18:22:01.477Z,23.88
2022-08-03T18:27:10.043Z,23.6
2022-08-03T18:32:17.488Z,23.42
2022-08-03T18:37:24.124Z,23.15
2022-08-03T18:42:31.691Z,22.75
2022-08-03T18:47:37.826Z,22.31
2022-08-03T18:52:46.002Z,21.86
2022-08-03T18:57:53.536Z,21.4
2022-08-03T19:03:01.275Z,21.14
2022-08-03T19:08:07.933Z,20.76
2022-08-03T19:13:15.121Z,20.42
2022-08-03T19:18:22.996Z,20.14
2022-08-03T19:23:29.989Z,20.0
2022-08-03T19:28:37.688Z,19.9
2022-08-03T19:33:45.181Z,19.74
2022-08-03T19:38:52.320Z,19.52
2022-08-03T19:43:59.545Z,19.28
2022-08-03T19:49:06.778Z,19.19
2022-08-03T19:54:14.266Z,19.22
2022-08-03T19:59:22.969Z,19.04
2022-08-03T20:04:30.163Z,18.83
2022-08-03T20:09:37.510Z,18.61
2022-08-03T20:14:46.745Z,18.36
2022-08-03T20:19:54.979Z,18.18
2022-08-03T20:25:03.282Z,18.07
2022-08-03T20:30:11.857Z,17.94
2022-08-03T20:35:20.974Z,17.89
2022-08-03T20:40:29.018Z,17.8
2022-08-03T20:45:36.478Z,17.68
2022-08-03T20:50:44.483Z,17.5
2022-08-03T20:55:52.282Z,17.35
2022-08-03T21:01:00.082Z,17.22
2022-08-03T21:06:07.115Z,17.08
2022-08-03T21:11:15.675Z,16.94
2022-08-03T21:16:22.633Z,16.85
2022-08-03T21:21:30.042Z,16.75
2022-08-03T21:26:37.598Z,16.72
2022-08-03T21:31:44.647Z,16.61
2022-08-03T21:36:52.086Z,16.52
2022-08-03T21:42:00.411Z,16.48
2022-08-03T21:47:10.506Z,16.44
2022-08-03T21:52:18.730Z,16.34
2022-08-03T21:57:27.147Z,16.22
2022-08-03T22:02:35.462Z,16.17
2022-08-03T22:07:41.657Z,16.06
2022-08-03T22:12:49.463Z,16.02
2022-08-03T22:17:56.697Z,16.02
2022-08-03T22:23:04.412Z,16.02
2022-08-03T22:28:12.487Z,15.94
2022-08-03T22:33:20.425Z,15.88
2022-08-03T22:39:05.816Z,15.8
2022-08-03T22:44:13.492Z,15.72
2022-08-03T22:49:22.437Z,15.64
2022-08-03T22:54:31.282Z,15.58
2022-08-03T22:59:39.099Z,15.52
2022-08-03T23:04:46.436Z,15.44
2022-08-03T23:09:53.957Z,15.42
2022-08-03T23:15:00.978Z,15.33
2022-08-03T23:20:08.744Z,15.24
2022-08-03T23:25:15.102Z,15.2
2022-08-03T23:30:22.936Z,15.2
2022-08-03T23:35:31.843Z,15.16
2022-08-03T23:40:38.615Z,15.08
2022-08-03T23:45:46.259Z,15.02
2022-08-03T23:50:54.240Z,14.94
2022-08-03T23:56:02.005Z,14.92
